KFRG/FRG METAR and TAF weather

Enter ICAO airport designator
Station Type Date Time Source
KFRG METAR 2019/04/22 23:53 UTC NOAA

KFRG 222353Z 01011KT 10SM BKN110 13/12 A2997 RMK AO2 RAE27 SLP148 P0000 6//// T01330117 10144 20128 55001


Station Type Date Time Source
KFRG Decoded METAR 2019/04/22 23:53 UTC NOAA

FARMINGDALE REPUBLIC AIRPORT , NY, United States (KFRG) 40-44N 073-25W 21M
Apr 22, 2019 - 07:53 PM EDT / 2019.04.22 2353 UTC
Wind: from the N (010 degrees) at 13 MPH (11 KT):0
Visibility: 10 mile(s):0
Sky conditions: mostly cloudy
Precipitation last hour: A trace
Temperature: 55.9 F (13.3 C)
Dew Point: 53.1 F (11.7 C)
Relative Humidity: 90%
Pressure (altimeter): 29.97 in. Hg (1014 hPa)
Pressure tendency: 0.00 inches (0.1 hPa) lower than three hours ago
ob: KFRG 222353Z 01011KT 10SM BKN110 13/12 A2997 RMK AO2 RAE27 SLP148 P0000 6//// T01330117 10144 20128 55001
cycle: 0

Station Type Date Time Source
KFRG TAF UTC NOAA

Error!

Example: see airport list